sensor_id;sensor_type;location;lat;lon;timestamp;temperature;humidity
18153;DHT22;9202;51.578;7.734;2022-11-20T00:00:25;-2.10;99.90
18153;DHT22;9202;51.578;7.734;2022-11-20T00:02:27;-2.10;99.90
18153;DHT22;9202;51.578;7.734;2022-11-20T00:04:30;-2.10;99.90
18153;DHT22;9202;51.578;7.734;2022-11-20T00:06:32;-2.20;99.90
18153;DHT22;9202;51.578;7.734;2022-11-20T00:08:35;-2.20;99.90
18153;DHT22;9202;51.578;7.734;2022-11-20T00:10:40;-2.20;99.90
18153;DHT22;9202;51.578;7.734;2022-11-20T00:12:43;-2.20;99.90
18153;DHT22;9202;51.578;7.734;2022-11-20T00:14:46;-2.30;99.90
18153;DHT22;9202;51.578;7.734;2022-11-20T00:16:48;-2.30;99.90
18153;DHT22;9202;51.578;7.734;2022-11-20T00:18:51;-2.40;99.90
18153;DHT22;9202;51.578;7.734;2022-11-20T00:20:59;-2.40;99.90
18153;DHT22;9202;51.578;7.734;2022-11-20T00:22:58;-2.50;99.90
18153;DHT22;9202;51.578;7.734;2022-11-20T00:25:01;-2.40;99.90
18153;DHT22;9202;51.578;7.734;2022-11-20T00:27:03;-2.40;99.90
18153;DHT22;9202;51.578;7.734;2022-11-20T00:29:08;-2.30;99.90
18153;DHT22;9202;51.578;7.734;2022-11-20T00:31:12;-2.30;99.90
18153;DHT22;9202;51.578;7.734;2022-11-20T00:33:14;-2.30;99.90
18153;DHT22;9202;51.578;7.734;2022-11-20T00:35:17;-2.30;99.90
18153;DHT22;9202;51.578;7.734;2022-11-20T00:37:19;-2.20;99.90
18153;DHT22;9202;51.578;7.734;2022-11-20T00:39:22;-2.20;99.90
18153;DHT22;9202;51.578;7.734;2022-11-20T00:41:25;-2.30;99.90
18153;DHT22;9202;51.578;7.734;2022-11-20T00:43:28;-2.30;99.90
18153;DHT22;9202;51.578;7.734;2022-11-20T00:45:31;-2.30;99.90
18153;DHT22;9202;51.578;7.734;2022-11-20T00:47:33;-2.30;99.90
18153;DHT22;9202;51.578;7.734;2022-11-20T00:49:36;-2.30;99.90
18153;DHT22;9202;51.578;7.734;2022-11-20T00:51:38;-2.40;99.90
18153;DHT22;9202;51.578;7.734;2022-11-20T00:53:41;-2.40;99.90
18153;DHT22;9202;51.578;7.734;2022-11-20T00:55:43;-2.40;99.90
18153;DHT22;9202;51.578;7.734;2022-11-20T00:57:47;-2.40;99.90
18153;DHT22;9202;51.578;7.734;2022-11-20T00:59:50;-2.40;99.90
18153;DHT22;9202;51.578;7.734;2022-11-20T01:01:52;-2.30;99.90
18153;DHT22;9202;51.578;7.734;2022-11-20T01:03:56;-2.30;99.90
18153;DHT22;9202;51.578;7.734;2022-11-20T01:05:59;-2.40;99.90
18153;DHT22;9202;51.578;7.734;2022-11-20T01:08:02;-2.40;99.90
18153;DHT22;9202;51.578;7.734;2022-11-20T01:10:06;-2.40;99.90
18153;DHT22;9202;51.578;7.734;2022-11-20T01:12:08;-2.50;99.90
18153;DHT22;9202;51.578;7.734;2022-11-20T01:14:11;-2.50;99.90
18153;DHT22;9202;51.578;7.734;2022-11-20T01:16:15;-2.60;99.90
18153;DHT22;9202;51.578;7.734;2022-11-20T01:18:18;-2.50;99.90
18153;DHT22;9202;51.578;7.734;2022-11-20T01:20:20;-2.50;99.90
18153;DHT22;9202;51.578;7.734;2022-11-20T01:22:23;-2.50;99.90
18153;DHT22;9202;51.578;7.734;2022-11-20T01:24:25;-2.40;99.90
18153;DHT22;9202;51.578;7.734;2022-11-20T01:26:29;-2.80;99.90
18153;DHT22;9202;51.578;7.734;2022-11-20T01:28:32;-2.50;99.90
18153;DHT22;9202;51.578;7.734;2022-11-20T01:30:34;-2.50;99.90
18153;DHT22;9202;51.578;7.734;2022-11-20T01:32:37;-2.40;99.90
18153;DHT22;9202;51.578;7.734;2022-11-20T01:34:39;-2.40;99.90
18153;DHT22;9202;51.578;7.734;2022-11-20T01:36:42;-2.40;99.90
18153;DHT22;9202;51.578;7.734;2022-11-20T01:38:45;-2.40;99.90
18153;DHT22;9202;51.578;7.734;2022-11-20T01:40:54;-1.50;99.90
18153;DHT22;9202;51.578;7.734;2022-11-20T01:43:00;-2.30;99.90
18153;DHT22;9202;51.578;7.734;2022-11-20T01:47:42;-2.30;99.90
18153;DHT22;9202;51.578;7.734;2022-11-20T01:49:46;-2.30;99.90
18153;DHT22;9202;51.578;7.734;2022-11-20T01:51:50;-2.30;99.90
18153;DHT22;9202;51.578;7.734;2022-11-20T01:53:54;-2.20;99.90
18153;DHT22;9202;51.578;7.734;2022-11-20T01:55:58;-2.20;99.90
18153;DHT22;9202;51.578;7.734;2022-11-20T01:58:02;-2.10;99.90
18153;DHT22;9202;51.578;7.734;2022-11-20T02:00:07;-2.10;99.90
18153;DHT22;9202;51.578;7.734;2022-11-20T02:02:12;-2.10;99.90
18153;DHT22;9202;51.578;7.734;2022-11-20T02:04:14;-2.20;99.90
18153;DHT22;9202;51.578;7.734;2022-11-20T02:06:19;-2.20;99.90
18153;DHT22;9202;51.578;7.734;2022-11-20T02:08:22;-2.20;99.90
18153;DHT22;9202;51.578;7.734;2022-11-20T02:10:26;-2.20;99.90
18153;DHT22;9202;51.578;7.734;2022-11-20T02:12:29;-2.20;99.90
18153;DHT22;9202;51.578;7.734;2022-11-20T02:14:49;-2.20;99.90
18153;DHT22;9202;51.578;7.734;2022-11-20T02:16:52;-2.20;99.90
18153;DHT22;9202;51.578;7.734;2022-11-20T02:18:56;-2.10;99.90
18153;DHT22;9202;51.578;7.734;2022-11-20T02:21:00;-2.10;99.90
18153;DHT22;9202;51.578;7.734;2022-11-20T02:23:04;-2.10;99.90
18153;DHT22;9202;51.578;7.734;2022-11-20T02:25:08;-2.00;99.90
18153;DHT22;9202;51.578;7.734;2022-11-20T02:27:12;-2.10;99.90
18153;DHT22;9202;51.578;7.734;2022-11-20T02:29:15;-2.00;99.90
18153;DHT22;9202;51.578;7.734;2022-11-20T02:31:19;-2.00;99.90
18153;DHT22;9202;51.578;7.734;2022-11-20T02:33:21;-1.90;99.90
18153;DHT22;9202;51.578;7.734;2022-11-20T02:35:40;-1.90;99.90
18153;DHT22;9202;51.578;7.734;2022-11-20T02:37:43;-2.10;99.90
18153;DHT22;9202;51.578;7.734;2022-11-20T02:39:47;-2.00;99.90
18153;DHT22;9202;51.578;7.734;2022-11-20T02:41:51;-1.90;99.90
18153;DHT22;9202;51.578;7.734;2022-11-20T02:43:54;-1.90;99.90
18153;DHT22;9202;51.578;7.734;2022-11-20T02:45:56;-1.80;99.90
18153;DHT22;9202;51.578;7.734;2022-11-20T02:47:59;-1.70;99.90
18153;DHT22;9202;51.578;7.734;2022-11-20T02:50:02;-1.70;99.90
18153;DHT22;9202;51.578;7.734;2022-11-20T02:52:05;-1.70;99.90
18153;DHT22;9202;51.578;7.734;2022-11-20T02:54:07;-1.60;99.90
18153;DHT22;9202;51.578;7.734;2022-11-20T02:56:10;-1.60;99.90
18153;DHT22;9202;51.578;7.734;2022-11-20T02:58:12;-1.70;99.90
18153;DHT22;9202;51.578;7.734;2022-11-20T03:00:15;-1.60;99.90
18153;DHT22;9202;51.578;7.734;2022-11-20T03:02:18;-1.60;99.90
18153;DHT22;9202;51.578;7.734;2022-11-20T03:04:21;-1.60;99.90
18153;DHT22;9202;51.578;7.734;2022-11-20T03:06:23;-1.60;99.90
18153;DHT22;9202;51.578;7.734;2022-11-20T03:08:26;-1.50;99.90
18153;DHT22;9202;51.578;7.734;2022-11-20T03:10:28;-1.60;99.90
18153;DHT22;9202;51.578;7.734;2022-11-20T03:12:31;-1.60;99.90
18153;DHT22;9202;51.578;7.734;2022-11-20T03:14:34;-1.60;99.90
18153;DHT22;9202;51.578;7.734;2022-11-20T03:16:36;-1.60;99.90
18153;DHT22;9202;51.578;7.734;2022-11-20T03:18:39;-1.60;99.90
18153;DHT22;9202;51.578;7.734;2022-11-20T03:20:41;-1.70;99.90
18153;DHT22;9202;51.578;7.734;2022-11-20T03:22:44;-1.70;99.90
18153;DHT22;9202;51.578;7.734;2022-11-20T03:24:46;-1.60;99.90
18153;DHT22;9202;51.578;7.734;2022-11-20T03:26:49;-1.60;99.90
18153;DHT22;9202;51.578;7.734;2022-11-20T03:28:52;-1.80;99.90
18153;DHT22;9202;51.578;7.734;2022-11-20T03:30:55;-1.80;99.90
18153;DHT22;9202;51.578;7.734;2022-11-20T03:32:57;-1.70;99.90
18153;DHT22;9202;51.578;7.734;2022-11-20T03:35:00;-1.70;99.90
18153;DHT22;9202;51.578;7.734;2022-11-20T03:37:02;-1.70;99.90
18153;DHT22;9202;51.578;7.734;2022-11-20T03:39:05;-1.60;99.90
18153;DHT22;9202;51.578;7.734;2022-11-20T03:41:08;-1.60;99.90
18153;DHT22;9202;51.578;7.734;2022-11-20T03:43:11;-1.70;99.90
18153;DHT22;9202;51.578;7.734;2022-11-20T03:45:14;-1.60;99.90
18153;DHT22;9202;51.578;7.734;2022-11-20T03:47:17;-1.50;99.90
18153;DHT22;9202;51.578;7.734;2022-11-20T03:49:19;-1.50;99.90
18153;DHT22;9202;51.578;7.734;2022-11-20T03:51:23;-1.50;99.90
18153;DHT22;9202;51.578;7.734;2022-11-20T03:53:25;-1.50;99.90
18153;DHT22;9202;51.578;7.734;2022-11-20T03:55:28;-1.50;99.90
18153;DHT22;9202;51.578;7.734;2022-11-20T03:57:30;-1.40;99.90
18153;DHT22;9202;51.578;7.734;2022-11-20T03:59:33;-1.40;99.90
18153;DHT22;9202;51.578;7.734;2022-11-20T04:01:36;-1.50;99.90
18153;DHT22;9202;51.578;7.734;2022-11-20T04:03:39;-1.40;99.90
18153;DHT22;9202;51.578;7.734;2022-11-20T04:05:42;-1.40;99.90
18153;DHT22;9202;51.578;7.734;2022-11-20T04:07:44;-1.30;99.90
18153;DHT22;9202;51.578;7.734;2022-11-20T04:09:47;-1.40;99.90
18153;DHT22;9202;51.578;7.734;2022-11-20T04:11:49;-1.50;99.90
18153;DHT22;9202;51.578;7.734;2022-11-20T04:13:53;-1.40;99.90
18153;DHT22;9202;51.578;7.734;2022-11-20T04:15:57;-1.30;99.90
18153;DHT22;9202;51.578;7.734;2022-11-20T04:17:59;-1.40;99.90
18153;DHT22;9202;51.578;7.734;2022-11-20T04:20:02;-1.30;99.90
18153;DHT22;9202;51.578;7.734;2022-11-20T04:22:05;-1.40;99.90
18153;DHT22;9202;51.578;7.734;2022-11-20T04:24:08;-1.40;99.90
18153;DHT22;9202;51.578;7.734;2022-11-20T04:26:12;-1.30;99.90
18153;DHT22;9202;51.578;7.734;2022-11-20T04:28:14;-1.40;99.90
18153;DHT22;9202;51.578;7.734;2022-11-20T04:30:17;-1.40;99.90
18153;DHT22;9202;51.578;7.734;2022-11-20T04:32:20;-1.30;99.90
18153;DHT22;9202;51.578;7.734;2022-11-20T04:34:22;-1.40;99.90
18153;DHT22;9202;51.578;7.734;2022-11-20T04:36:25;-1.40;99.90
18153;DHT22;9202;51.578;7.734;2022-11-20T04:38:28;-1.50;99.90
18153;DHT22;9202;51.578;7.734;2022-11-20T04:40:30;-1.50;99.90
18153;DHT22;9202;51.578;7.734;2022-11-20T04:42:33;-1.40;99.90
18153;DHT22;9202;51.578;7.734;2022-11-20T04:44:35;-1.40;99.90
18153;DHT22;9202;51.578;7.734;2022-11-20T04:46:39;-1.40;99.90
18153;DHT22;9202;51.578;7.734;2022-11-20T04:48:41;-1.50;99.90
18153;DHT22;9202;51.578;7.734;2022-11-20T04:50:44;-1.40;99.90
18153;DHT22;9202;51.578;7.734;2022-11-20T04:52:47;-1.40;99.90
18153;DHT22;9202;51.578;7.734;2022-11-20T04:54:49;-1.30;99.90
18153;DHT22;9202;51.578;7.734;2022-11-20T04:56:54;-1.30;99.90
18153;DHT22;9202;51.578;7.734;2022-11-20T04:59:00;-1.20;99.90
18153;DHT22;9202;51.578;7.734;2022-11-20T05:01:03;-1.20;99.90
18153;DHT22;9202;51.578;7.734;2022-11-20T05:03:06;-1.20;99.90
18153;DHT22;9202;51.578;7.734;2022-11-20T05:05:09;-1.20;99.90
18153;DHT22;9202;51.578;7.734;2022-11-20T05:07:11;-1.20;99.90
18153;DHT22;9202;51.578;7.734;2022-11-20T05:09:14;-1.20;99.90
18153;DHT22;9202;51.578;7.734;2022-11-20T05:11:17;-1.10;99.90
18153;DHT22;9202;51.578;7.734;2022-11-20T05:13:20;-1.10;99.90
18153;DHT22;9202;51.578;7.734;2022-11-20T05:15:22;-1.00;99.90
18153;DHT22;9202;51.578;7.734;2022-11-20T05:17:25;-1.10;99.90
18153;DHT22;9202;51.578;7.734;2022-11-20T05:19:28;-1.10;99.90
18153;DHT22;9202;51.578;7.734;2022-11-20T05:21:31;-1.00;99.90
18153;DHT22;9202;51.578;7.734;2022-11-20T05:23:33;-1.00;99.90
18153;DHT22;9202;51.578;7.734;2022-11-20T05:25:36;-0.90;99.90
18153;DHT22;9202;51.578;7.734;2022-11-20T05:27:39;-1.00;99.90
18153;DHT22;9202;51.578;7.734;2022-11-20T05:29:41;-1.10;99.90
18153;DHT22;9202;51.578;7.734;2022-11-20T05:31:44;-1.10;99.90
18153;DHT22;9202;51.578;7.734;2022-11-20T05:33:46;-1.20;99.90
18153;DHT22;9202;51.578;7.734;2022-11-20T05:35:49;-1.10;99.90
18153;DHT22;9202;51.578;7.734;2022-11-20T05:37:52;-1.10;99.90
18153;DHT22;9202;51.578;7.734;2022-11-20T05:39:54;-1.20;99.90
18153;DHT22;9202;51.578;7.734;2022-11-20T05:41:57;-1.10;99.90
18153;DHT22;9202;51.578;7.734;2022-11-20T05:44:22;-1.10;99.90
18153;DHT22;9202;51.578;7.734;2022-11-20T05:46:36;-1.10;99.90
18153;DHT22;9202;51.578;7.734;2022-11-20T05:48:41;-1.00;99.90
18153;DHT22;9202;51.578;7.734;2022-11-20T05:50:45;-1.10;99.90
18153;DHT22;9202;51.578;7.734;2022-11-20T05:52:48;-1.10;99.90
18153;DHT22;9202;51.578;7.734;2022-11-20T05:54:50;-1.10;99.90
18153;DHT22;9202;51.578;7.734;2022-11-20T05:56:53;-1.00;99.90
18153;DHT22;9202;51.578;7.734;2022-11-20T05:58:56;-0.90;99.90
18153;DHT22;9202;51.578;7.734;2022-11-20T06:01:03;-0.90;99.90
18153;DHT22;9202;51.578;7.734;2022-11-20T06:03:06;-0.90;99.90
18153;DHT22;9202;51.578;7.734;2022-11-20T06:05:09;-0.90;99.90
18153;DHT22;9202;51.578;7.734;2022-11-20T06:07:11;-0.90;99.90
18153;DHT22;9202;51.578;7.734;2022-11-20T06:09:14;-0.80;99.90
18153;DHT22;9202;51.578;7.734;2022-11-20T06:11:17;-0.80;99.90
18153;DHT22;9202;51.578;7.734;2022-11-20T06:13:19;-0.80;99.90
18153;DHT22;9202;51.578;7.734;2022-11-20T06:15:22;-0.70;99.90
18153;DHT22;9202;51.578;7.734;2022-11-20T06:17:24;-0.70;99.90
18153;DHT22;9202;51.578;7.734;2022-11-20T06:19:27;-0.70;99.90
18153;DHT22;9202;51.578;7.734;2022-11-20T06:21:29;-0.70;99.90
18153;DHT22;9202;51.578;7.734;2022-11-20T06:23:32;-0.80;99.90
18153;DHT22;9202;51.578;7.734;2022-11-20T06:25:37;-0.80;99.90
18153;DHT22;9202;51.578;7.734;2022-11-20T06:27:40;-0.70;99.90
18153;DHT22;9202;51.578;7.734;2022-11-20T06:29:42;-0.80;99.90
18153;DHT22;9202;51.578;7.734;2022-11-20T06:31:45;-0.90;99.90
18153;DHT22;9202;51.578;7.734;2022-11-20T06:33:47;-0.90;99.90
18153;DHT22;9202;51.578;7.734;2022-11-20T06:35:50;-0.80;99.90
18153;DHT22;9202;51.578;7.734;2022-11-20T06:37:55;-0.80;99.90
18153;DHT22;9202;51.578;7.734;2022-11-20T06:39:58;-0.80;99.90
18153;DHT22;9202;51.578;7.734;2022-11-20T06:42:01;-0.80;99.90
18153;DHT22;9202;51.578;7.734;2022-11-20T06:44:04;-0.60;99.90
18153;DHT22;9202;51.578;7.734;2022-11-20T06:46:06;-0.70;99.90
18153;DHT22;9202;51.578;7.734;2022-11-20T06:48:09;-0.60;99.90
18153;DHT22;9202;51.578;7.734;2022-11-20T06:52:14;-0.70;99.90
18153;DHT22;9202;51.578;7.734;2022-11-20T06:54:17;-0.60;99.90
18153;DHT22;9202;51.578;7.734;2022-11-20T06:56:19;-0.70;99.90
18153;DHT22;9202;51.578;7.734;2022-11-20T06:58:22;-0.60;99.90
18153;DHT22;9202;51.578;7.734;2022-11-20T07:00:24;-0.70;99.90
18153;DHT22;9202;51.578;7.734;2022-11-20T07:02:27;-0.80;99.90
18153;DHT22;9202;51.578;7.734;2022-11-20T07:04:29;-0.70;99.90
18153;DHT22;9202;51.578;7.734;2022-11-20T07:06:32;-0.70;99.90
18153;DHT22;9202;51.578;7.734;2022-11-20T07:08:35;-0.70;99.90
18153;DHT22;9202;51.578;7.734;2022-11-20T07:10:37;-0.70;99.90
18153;DHT22;9202;51.578;7.734;2022-11-20T07:12:40;-0.70;99.90
18153;DHT22;9202;51.578;7.734;2022-11-20T07:14:42;-0.70;99.90
18153;DHT22;9202;51.578;7.734;2022-11-20T07:16:45;-0.70;99.90
18153;DHT22;9202;51.578;7.734;2022-11-20T07:18:47;-0.70;99.90
18153;DHT22;9202;51.578;7.734;2022-11-20T07:20:52;-0.70;99.90
18153;DHT22;9202;51.578;7.734;2022-11-20T07:22:54;-0.70;99.90
18153;DHT22;9202;51.578;7.734;2022-11-20T07:24:57;-0.70;99.90
18153;DHT22;9202;51.578;7.734;2022-11-20T07:26:59;-0.70;99.90
18153;DHT22;9202;51.578;7.734;2022-11-20T07:29:02;-0.70;99.90
18153;DHT22;9202;51.578;7.734;2022-11-20T07:31:05;-0.70;99.90
18153;DHT22;9202;51.578;7.734;2022-11-20T07:33:08;-0.70;99.90
18153;DHT22;9202;51.578;7.734;2022-11-20T07:35:10;-0.80;99.90
18153;DHT22;9202;51.578;7.734;2022-11-20T07:37:13;-0.80;99.90
18153;DHT22;9202;51.578;7.734;2022-11-20T07:39:15;-0.70;99.90
18153;DHT22;9202;51.578;7.734;2022-11-20T07:41:18;-0.80;99.90
18153;DHT22;9202;51.578;7.734;2022-11-20T07:43:20;-0.70;99.90
18153;DHT22;9202;51.578;7.734;2022-11-20T07:45:23;-0.70;99.90
18153;DHT22;9202;51.578;7.734;2022-11-20T07:47:26;-0.60;99.90
18153;DHT22;9202;51.578;7.734;2022-11-20T07:49:28;-0.60;99.90
18153;DHT22;9202;51.578;7.734;2022-11-20T07:51:31;-0.70;99.90
18153;DHT22;9202;51.578;7.734;2022-11-20T07:53:36;-0.60;99.90
18153;DHT22;9202;51.578;7.734;2022-11-20T07:55:38;-0.50;99.90
18153;DHT22;9202;51.578;7.734;2022-11-20T07:57:41;-0.50;99.90
18153;DHT22;9202;51.578;7.734;2022-11-20T07:59:43;-0.30;99.90
18153;DHT22;9202;51.578;7.734;2022-11-20T08:01:47;-0.30;99.90
18153;DHT22;9202;51.578;7.734;2022-11-20T08:03:51;-0.30;99.90
18153;DHT22;9202;51.578;7.734;2022-11-20T08:05:54;-0.20;99.90
18153;DHT22;9202;51.578;7.734;2022-11-20T08:07:56;-0.20;99.90
18153;DHT22;9202;51.578;7.734;2022-11-20T08:09:59;-0.20;99.90
18153;DHT22;9202;51.578;7.734;2022-11-20T08:12:01;0.00;99.90
18153;DHT22;9202;51.578;7.734;2022-11-20T08:14:22;0.00;99.90
18153;DHT22;9202;51.578;7.734;2022-11-20T08:16:25;0.10;99.90
18153;DHT22;9202;51.578;7.734;2022-11-20T08:18:27;0.10;99.90
18153;DHT22;9202;51.578;7.734;2022-11-20T08:20:32;0.20;99.90
18153;DHT22;9202;51.578;7.734;2022-11-20T08:22:35;0.30;99.90
18153;DHT22;9202;51.578;7.734;2022-11-20T08:24:37;0.30;99.90
18153;DHT22;9202;51.578;7.734;2022-11-20T08:26:40;0.40;99.90
18153;DHT22;9202;51.578;7.734;2022-11-20T08:28:42;0.40;99.90
18153;DHT22;9202;51.578;7.734;2022-11-20T08:30:45;0.40;99.90
18153;DHT22;9202;51.578;7.734;2022-11-20T08:32:48;0.40;99.90
18153;DHT22;9202;51.578;7.734;2022-11-20T08:34:50;0.40;99.90
18153;DHT22;9202;51.578;7.734;2022-11-20T08:36:54;0.30;99.90
18153;DHT22;9202;51.578;7.734;2022-11-20T08:38:56;0.20;99.90
18153;DHT22;9202;51.578;7.734;2022-11-20T08:40:59;0.20;99.90
18153;DHT22;9202;51.578;7.734;2022-11-20T08:43:19;0.20;99.90
18153;DHT22;9202;51.578;7.734;2022-11-20T08:45:22;0.10;99.90
18153;DHT22;9202;51.578;7.734;2022-11-20T08:47:24;0.10;99.90
18153;DHT22;9202;51.578;7.734;2022-11-20T08:49:27;0.10;99.90
18153;DHT22;9202;51.578;7.734;2022-11-20T08:51:30;0.20;99.90
18153;DHT22;9202;51.578;7.734;2022-11-20T08:53:33;0.20;99.90
18153;DHT22;9202;51.578;7.734;2022-11-20T08:55:35;0.20;99.90
18153;DHT22;9202;51.578;7.734;2022-11-20T08:57:38;0.20;99.90
18153;DHT22;9202;51.578;7.734;2022-11-20T08:59:41;0.30;99.90
18153;DHT22;9202;51.578;7.734;2022-11-20T09:01:45;0.30;99.90
18153;DHT22;9202;51.578;7.734;2022-11-20T09:03:48;0.30;99.90
18153;DHT22;9202;51.578;7.734;2022-11-20T09:05:51;0.40;99.90
18153;DHT22;9202;51.578;7.734;2022-11-20T09:07:56;0.40;99.90
18153;DHT22;9202;51.578;7.734;2022-11-20T09:09:58;0.40;99.90
18153;DHT22;9202;51.578;7.734;2022-11-20T09:12:03;0.40;99.90
18153;DHT22;9202;51.578;7.734;2022-11-20T09:14:05;0.40;99.90
18153;DHT22;9202;51.578;7.734;2022-11-20T09:16:08;0.50;99.90
18153;DHT22;9202;51.578;7.734;2022-11-20T09:18:11;0.50;99.90
18153;DHT22;9202;51.578;7.734;2022-11-20T09:20:14;0.50;99.90
18153;DHT22;9202;51.578;7.734;2022-11-20T09:22:16;0.60;99.90
18153;DHT22;9202;51.578;7.734;2022-11-20T09:24:19;0.70;99.90
18153;DHT22;9202;51.578;7.734;2022-11-20T09:26:22;0.70;99.90
18153;DHT22;9202;51.578;7.734;2022-11-20T09:28:24;0.80;99.90
18153;DHT22;9202;51.578;7.734;2022-11-20T09:30:27;1.00;99.90
18153;DHT22;9202;51.578;7.734;2022-11-20T09:32:29;1.10;99.90
18153;DHT22;9202;51.578;7.734;2022-11-20T09:34:32;1.00;99.90
18153;DHT22;9202;51.578;7.734;2022-11-20T09:36:35;1.10;99.90
18153;DHT22;9202;51.578;7.734;2022-11-20T09:38:38;1.20;99.90
18153;DHT22;9202;51.578;7.734;2022-11-20T09:40:47;1.20;99.90
18153;DHT22;9202;51.578;7.734;2022-11-20T09:42:45;1.30;99.90
18153;DHT22;9202;51.578;7.734;2022-11-20T09:44:51;1.40;99.90
18153;DHT22;9202;51.578;7.734;2022-11-20T09:46:56;1.50;99.90
18153;DHT22;9202;51.578;7.734;2022-11-20T09:49:03;1.50;99.90
18153;DHT22;9202;51.578;7.734;2022-11-20T09:51:08;1.70;99.90
18153;DHT22;9202;51.578;7.734;2022-11-20T09:53:12;1.80;99.90
18153;DHT22;9202;51.578;7.734;2022-11-20T09:55:15;2.00;99.90
18153;DHT22;9202;51.578;7.734;2022-11-20T09:57:18;2.20;99.90
18153;DHT22;9202;51.578;7.734;2022-11-20T09:59:35;2.30;99.90
18153;DHT22;9202;51.578;7.734;2022-11-20T10:01:38;2.40;99.90
18153;DHT22;9202;51.578;7.734;2022-11-20T10:03:45;2.60;99.90
18153;DHT22;9202;51.578;7.734;2022-11-20T10:05:51;2.80;99.90
18153;DHT22;9202;51.578;7.734;2022-11-20T10:07:55;2.90;99.90
18153;DHT22;9202;51.578;7.734;2022-11-20T10:09:59;3.20;99.90
18153;DHT22;9202;51.578;7.734;2022-11-20T10:12:05;3.70;99.90
18153;DHT22;9202;51.578;7.734;2022-11-20T10:14:12;3.90;99.90
18153;DHT22;9202;51.578;7.734;2022-11-20T10:16:19;4.10;99.90
18153;DHT22;9202;51.578;7.734;2022-11-20T10:18:26;4.20;99.90
18153;DHT22;9202;51.578;7.734;2022-11-20T10:20:29;4.40;99.90
18153;DHT22;9202;51.578;7.734;2022-11-20T10:22:38;4.50;99.90
18153;DHT22;9202;51.578;7.734;2022-11-20T10:24:44;4.60;99.90
18153;DHT22;9202;51.578;7.734;2022-11-20T10:26:49;4.80;99.90
18153;DHT22;9202;51.578;7.734;2022-11-20T10:28:59;4.60;99.90
18153;DHT22;9202;51.578;7.734;2022-11-20T10:31:04;4.50;99.90
18153;DHT22;9202;51.578;7.734;2022-11-20T10:33:11;4.50;99.90
18153;DHT22;9202;51.578;7.734;2022-11-20T10:35:18;4.40;99.90
18153;DHT22;9202;51.578;7.734;2022-11-20T10:37:22;4.40;99.90
18153;DHT22;9202;51.578;7.734;2022-11-20T10:39:28;4.50;99.90
18153;DHT22;9202;51.578;7.734;2022-11-20T10:41:32;4.60;99.90
18153;DHT22;9202;51.578;7.734;2022-11-20T10:43:38;4.80;99.90
18153;DHT22;9202;51.578;7.734;2022-11-20T10:45:48;4.90;99.90
18153;DHT22;9202;51.578;7.734;2022-11-20T10:47:52;4.90;99.90
18153;DHT22;9202;51.578;7.734;2022-11-20T10:49:55;5.00;99.90
18153;DHT22;9202;51.578;7.734;2022-11-20T10:52:04;5.00;99.90
18153;DHT22;9202;51.578;7.734;2022-11-20T10:54:11;5.10;99.90
18153;DHT22;9202;51.578;7.734;2022-11-20T10:56:17;5.10;99.90
18153;DHT22;9202;51.578;7.734;2022-11-20T10:58:23;5.20;99.90
18153;DHT22;9202;51.578;7.734;2022-11-20T11:00:26;5.30;99.90
18153;DHT22;9202;51.578;7.734;2022-11-20T11:02:33;5.90;99.90
18153;DHT22;9202;51.578;7.734;2022-11-20T11:04:38;5.20;99.90
18153;DHT22;9202;51.578;7.734;2022-11-20T11:06:42;5.20;99.90
18153;DHT22;9202;51.578;7.734;2022-11-20T11:11:02;5.10;99.90
18153;DHT22;9202;51.578;7.734;2022-11-20T11:13:06;5.00;99.90
18153;DHT22;9202;51.578;7.734;2022-11-20T11:15:12;4.90;99.90
18153;DHT22;9202;51.578;7.734;2022-11-20T11:17:22;4.70;99.90
18153;DHT22;9202;51.578;7.734;2022-11-20T11:19:25;4.60;99.90
18153;DHT22;9202;51.578;7.734;2022-11-20T11:21:28;4.60;99.90
18153;DHT22;9202;51.578;7.734;2022-11-20T11:23:31;4.70;99.90
18153;DHT22;9202;51.578;7.734;2022-11-20T11:25:35;4.60;99.90
18153;DHT22;9202;51.578;7.734;2022-11-20T11:27:45;4.60;99.90
18153;DHT22;9202;51.578;7.734;2022-11-20T11:29:48;4.60;99.90
18153;DHT22;9202;51.578;7.734;2022-11-20T11:31:51;4.50;99.90
18153;DHT22;9202;51.578;7.734;2022-11-20T11:34:04;4.40;99.90
18153;DHT22;9202;51.578;7.734;2022-11-20T11:36:16;4.30;99.90
18153;DHT22;9202;51.578;7.734;2022-11-20T11:38:21;4.40;99.90
18153;DHT22;9202;51.578;7.734;2022-11-20T11:40:24;4.30;99.90
18153;DHT22;9202;51.578;7.734;2022-11-20T11:42:28;4.30;99.90
18153;DHT22;9202;51.578;7.734;2022-11-20T11:44:31;4.20;99.90
18153;DHT22;9202;51.578;7.734;2022-11-20T11:46:53;4.10;99.90
18153;DHT22;9202;51.578;7.734;2022-11-20T11:48:57;4.00;99.90
18153;DHT22;9202;51.578;7.734;2022-11-20T11:51:00;3.90;99.90
18153;DHT22;9202;51.578;7.734;2022-11-20T11:53:07;3.80;99.90
18153;DHT22;9202;51.578;7.734;2022-11-20T11:55:12;3.80;99.90
18153;DHT22;9202;51.578;7.734;2022-11-20T11:57:15;3.70;99.90
18153;DHT22;9202;51.578;7.734;2022-11-20T11:59:22;3.70;99.90
18153;DHT22;9202;51.578;7.734;2022-11-20T12:01:28;3.60;99.90
18153;DHT22;9202;51.578;7.734;2022-11-20T12:03:34;3.60;99.90
18153;DHT22;9202;51.578;7.734;2022-11-20T12:05:38;3.60;99.90
18153;DHT22;9202;51.578;7.734;2022-11-20T12:07:42;3.60;99.90
18153;DHT22;9202;51.578;7.734;2022-11-20T12:09:47;3.60;99.90
18153;DHT22;9202;51.578;7.734;2022-11-20T12:11:51;3.70;99.90
18153;DHT22;9202;51.578;7.734;2022-11-20T12:13:57;3.70;99.90
18153;DHT22;9202;51.578;7.734;2022-11-20T12:16:02;3.80;99.90
18153;DHT22;9202;51.578;7.734;2022-11-20T12:18:06;3.80;99.90
18153;DHT22;9202;51.578;7.734;2022-11-20T12:20:12;3.70;99.90
18153;DHT22;9202;51.578;7.734;2022-11-20T12:22:18;3.80;99.90
18153;DHT22;9202;51.578;7.734;2022-11-20T12:24:27;3.70;99.90
18153;DHT22;9202;51.578;7.734;2022-11-20T12:26:33;3.70;99.90
18153;DHT22;9202;51.578;7.734;2022-11-20T12:28:45;3.70;99.90
18153;DHT22;9202;51.578;7.734;2022-11-20T12:30:50;3.70;99.90
18153;DHT22;9202;51.578;7.734;2022-11-20T12:33:06;3.70;99.90
18153;DHT22;9202;51.578;7.734;2022-11-20T12:35:12;3.70;99.90
18153;DHT22;9202;51.578;7.734;2022-11-20T12:37:18;3.70;99.90
18153;DHT22;9202;51.578;7.734;2022-11-20T12:39:32;3.70;99.90
18153;DHT22;9202;51.578;7.734;2022-11-20T12:41:44;3.70;99.90
18153;DHT22;9202;51.578;7.734;2022-11-20T12:44:07;3.80;99.90
18153;DHT22;9202;51.578;7.734;2022-11-20T12:48:52;3.80;99.90
18153;DHT22;9202;51.578;7.734;2022-11-20T12:51:02;3.80;99.90
18153;DHT22;9202;51.578;7.734;2022-11-20T12:53:05;3.80;99.90
18153;DHT22;9202;51.578;7.734;2022-11-20T12:55:14;3.80;99.90
18153;DHT22;9202;51.578;7.734;2022-11-20T12:57:20;3.90;99.90
18153;DHT22;9202;51.578;7.734;2022-11-20T12:59:30;3.90;99.90
18153;DHT22;9202;51.578;7.734;2022-11-20T13:01:34;3.80;99.90
18153;DHT22;9202;51.578;7.734;2022-11-20T13:03:44;3.80;99.90
18153;DHT22;9202;51.578;7.734;2022-11-20T13:05:52;3.80;99.90
18153;DHT22;9202;51.578;7.734;2022-11-20T13:07:55;3.90;99.90
18153;DHT22;9202;51.578;7.734;2022-11-20T13:09:58;3.90;99.90
18153;DHT22;9202;51.578;7.734;2022-11-20T13:12:03;3.90;99.90
18153;DHT22;9202;51.578;7.734;2022-11-20T13:14:19;3.90;99.90
18153;DHT22;9202;51.578;7.734;2022-11-20T13:16:24;3.80;99.90
18153;DHT22;9202;51.578;7.734;2022-11-20T13:18:27;3.80;99.90
18153;DHT22;9202;51.578;7.734;2022-11-20T13:20:30;3.80;99.90
18153;DHT22;9202;51.578;7.734;2022-11-20T13:22:42;3.80;99.90
18153;DHT22;9202;51.578;7.734;2022-11-20T13:24:49;3.80;99.90
18153;DHT22;9202;51.578;7.734;2022-11-20T13:26:59;3.80;99.90
18153;DHT22;9202;51.578;7.734;2022-11-20T13:29:05;3.80;99.90
18153;DHT22;9202;51.578;7.734;2022-11-20T13:31:10;3.80;99.90